Terminal Aerodrome Forecast
Issued by NWS

Home | Current Version | Previous Version | Text Only | Print | Product List | Glossary On
Versions: 1 2 3 4 5 6 7 8 9 10 11 12 13 14 15 16 17 18 19 20 21 22 23 24 25 26 27 28
000
FTUS43 KMKX 170014 AAA
TAFENW
TAF AMD
KENW 170014Z 1700/1724 04005KT P6SM SCT008
     FM170200 06005KT P6SM BKN008
     FM171500 10006KT P6SM OVC010
     FM171800 12006KT P6SM OVC020
     FM172000 18005KT P6SM BKN035=

USA.gov is the U.S. government's official web portal to all federal, state and local government web resources and services.